Lula, MS

7:07 AM CST on February 27, 2015 (GMT -0600)
Memphis International | Change Station
CLOSE
Current Station
Airport
Location: Memphis,
Elevation: 331 ft
Nearby Weather Stations

Elev 331 ft 35.06 °N, 89.99 °W | Updated 13 minutes ago

Clear
Clear
21 °F
Feels Like 9 °F
N
12
Wind Variable Wind from NE

Today
High -- | Low -- °F
--% Chance of Precip.
Yesterday
High -- | Low -- °F
Precip. -- in
6:33 AM 5:56 PM
Waxing Gibbous, 68% visible
Pressure 30.56 in
Visibility 10.0 miles
Clouds Few 2500 ft
Scattered Clouds 25000 ft
Windchill 9 °F
Dew Point 11 °F
Humidity 65%
Rainfall 0.00 in
Snow Depth Not available.
UV 0 out of 12
Pollen 4.00 out of 12
Air Quality Not available.
Flu Activity Not available.
METAR KMEM 271254Z 04010KT 10SM FEW025 SCT250 M06/M12 A3054 RMK AO2 SLP346 T10611117

More Conditions Fewer Conditions

Pressure 30.56 in
Visibility 10.0 miles
Clouds Few 2500 ft
Scattered Clouds 25000 ft
Windchill 9 °F
Dew Point 11 °F
Humidity 65%
Rainfall 0.00 in
Snow Depth Not available.
UV 0 out of 12
Pollen 4.00 out of 12
Air Quality Not available.
Flu Activity Not available.
METAR KMEM 271254Z 04010KT 10SM FEW025 SCT250 M06/M12 A3054 RMK AO2 SLP346 T10611117

More Conditions Fewer Conditions

10-Day Weather Forecast

Almanac

Astronomy

Feb. 27, 2015 Rise Set
Actual Time
Civil Twilight
Nautical Twilight
Astronomical Twilight
Moon
Length of Visible Light
Length of Day
Tomorrow will be .
, % of the Moon is Illuminated

Today's Extremes

State Highs State Lows

Community

WunderPhotos

Upload Photos

1,800,666 photos uploaded!

WunderBlogs® & News

Nearby

Air Quality

  Air Quality AQ Index Pollutant
Not available.

Snow Depth

Station Depth Elevation

Earthquake Activity

City Distance Mag. Time & Date
Minimum magnitude displayed is 2.5.

Coastal Water Temperatures

Place Temperature

Nearby Weather Stations